createdAt,value
2018-04-13T00:02:04.567Z,46.17
2018-04-13T00:04:32.194Z,45.80
2018-04-13T00:06:59.954Z,48.10
2018-04-13T00:09:27.568Z,50.33
2018-04-13T00:11:55.297Z,50.63
2018-04-13T00:14:22.905Z,52.07
2018-04-13T00:16:50.539Z,45.43
2018-04-13T00:19:18.144Z,52.37
2018-04-13T00:21:45.726Z,52.77
2018-04-13T00:24:13.792Z,61.13
2018-04-13T00:26:41.391Z,52.90
2018-04-13T00:29:08.978Z,52.93
2018-04-13T00:31:36.924Z,54.53
2018-04-13T00:34:04.547Z,50.63
2018-04-13T00:36:32.246Z,48.23
2018-04-13T00:39:00.164Z,48.83
2018-04-13T00:41:27.805Z,42.93
2018-04-13T00:43:55.404Z,50.77
2018-04-13T00:46:23.011Z,58.80
2018-04-13T00:48:50.656Z,57.03
2018-04-13T00:51:18.690Z,58.90
2018-04-13T00:53:46.389Z,56.87
2018-04-13T00:56:14.171Z,49.57
2018-04-13T00:58:41.781Z,52.80
2018-04-13T01:01:09.449Z,49.60
2018-04-13T01:03:37.117Z,57.83
2018-04-13T01:06:04.712Z,62.00
2018-04-13T01:08:32.315Z,56.77
2018-04-13T01:11:00.185Z,53.43
2018-04-13T01:13:28.272Z,51.60
2018-04-13T01:15:56.388Z,54.13
2018-04-13T01:18:24.199Z,56.43
2018-04-13T01:20:51.815Z,59.20
2018-04-13T01:23:19.445Z,53.67
2018-04-13T01:25:47.360Z,55.43
2018-04-13T01:28:15.247Z,54.40
2018-04-13T01:30:46.750Z,60.37
2018-04-13T01:33:14.437Z,53.57
2018-04-13T01:35:42.117Z,52.30
2018-04-13T01:38:09.749Z,55.87
2018-04-13T01:40:37.645Z,52.00
2018-04-13T01:43:05.528Z,52.40
2018-04-13T01:45:33.354Z,65.40
2018-04-13T01:48:01.097Z,58.63
2018-04-13T01:50:29.138Z,57.03
2018-04-13T01:52:56.809Z,65.43
2018-04-13T01:55:24.511Z,59.30
2018-04-13T01:57:52.288Z,57.93
2018-04-13T02:00:20.120Z,57.00
2018-04-13T02:02:48.008Z,53.60
2018-04-13T02:05:16.039Z,59.67
2018-04-13T02:07:43.739Z,53.90
2018-04-13T02:10:11.445Z,56.47
2018-04-13T02:12:39.039Z,61.40
2018-04-13T02:15:07.093Z,55.67
2018-04-13T02:17:34.809Z,51.33
2018-04-13T02:20:02.465Z,57.73
2018-04-13T02:22:30.144Z,62.63
2018-04-13T02:24:57.981Z,53.97
2018-04-13T02:27:25.591Z,54.90
2018-04-13T02:29:53.264Z,57.07
2018-04-13T02:32:20.948Z,68.83
2018-04-13T02:34:48.901Z,51.00
2018-04-13T02:37:16.515Z,49.07
2018-04-13T02:39:44.166Z,55.37
2018-04-13T02:42:11.771Z,48.73
2018-04-13T02:44:39.759Z,55.00
2018-04-13T02:47:07.340Z,49.60
2018-04-13T02:49:35.381Z,50.73
2018-04-13T02:52:03.097Z,53.73
2018-04-13T02:54:31.535Z,51.33
2018-04-13T02:56:59.221Z,53.00
2018-04-13T02:59:26.851Z,45.40
2018-04-13T03:01:54.822Z,46.70
2018-04-13T03:04:22.463Z,46.90
2018-04-13T03:06:50.455Z,47.87
2018-04-13T03:09:18.178Z,44.10
2018-04-13T03:11:45.888Z,44.20
2018-04-13T03:14:13.993Z,41.30
2018-04-13T03:16:41.703Z,44.97
2018-04-13T03:19:09.353Z,52.30
2018-04-13T03:21:37.636Z,46.33
2018-04-13T03:24:05.529Z,44.27
2018-04-13T03:26:33.176Z,48.77
2018-04-13T03:29:01.056Z,46.13
2018-04-13T03:31:28.804Z,46.80
2018-04-13T03:33:56.510Z,45.73
2018-04-13T03:36:24.263Z,44.33
2018-04-13T03:38:51.924Z,45.60
2018-04-13T03:41:19.611Z,45.60
2018-04-13T03:43:47.293Z,41.17
2018-04-13T03:46:14.985Z,49.73
2018-04-13T03:48:42.649Z,46.00
2018-04-13T03:51:10.586Z,43.43
2018-04-13T03:53:38.424Z,35.60
2018-04-13T03:56:06.006Z,39.87
2018-04-13T03:58:33.708Z,41.10
2018-04-13T04:01:01.400Z,45.23
2018-04-13T04:03:29.014Z,50.87
2018-04-13T04:05:56.617Z,45.37
2018-04-13T04:08:24.248Z,48.90
2018-04-13T04:10:51.888Z,44.30
2018-04-13T04:13:19.513Z,37.27
2018-04-13T04:15:47.516Z,52.47
2018-04-13T04:18:15.126Z,42.90
2018-04-13T04:20:54.425Z,56.60
2018-04-13T04:26:36.898Z,41.50
2018-04-13T04:29:04.567Z,41.70
2018-04-13T04:31:32.166Z,39.10
2018-04-13T04:34:00.338Z,39.13
2018-04-13T04:36:27.926Z,38.10
2018-04-13T04:38:55.612Z,36.37
2018-04-13T04:41:23.242Z,43.57
2018-04-13T04:43:50.958Z,44.23
2018-04-13T04:46:18.540Z,41.97
2018-04-13T04:48:46.147Z,39.80
2018-04-13T04:51:13.889Z,41.27
2018-04-13T04:53:41.488Z,45.20
2018-04-13T04:56:09.129Z,42.00
2018-04-13T04:58:36.908Z,48.40
2018-04-13T05:01:04.604Z,51.60
2018-04-13T05:03:32.246Z,41.83
2018-04-13T05:06:00.260Z,51.47
2018-04-13T05:08:27.850Z,51.17
2018-04-13T05:10:55.518Z,44.07
2018-04-13T05:13:23.253Z,49.80
2018-04-13T05:15:51.084Z,59.00
2018-04-13T05:18:18.677Z,54.67
2018-04-13T05:20:46.539Z,67.90
2018-04-13T05:23:14.140Z,49.60
2018-04-13T05:25:41.722Z,50.30
2018-04-13T05:28:09.379Z,50.47
2018-04-13T05:30:37.015Z,41.53
2018-04-13T05:33:04.634Z,46.20
2018-04-13T05:35:32.293Z,52.37
2018-04-13T05:37:59.973Z,51.67
2018-04-13T05:40:27.658Z,51.00
2018-04-13T05:42:56.318Z,57.00
2018-04-13T05:45:24.248Z,52.77
2018-04-13T05:47:52.220Z,53.20
2018-04-13T05:50:19.899Z,53.27
2018-04-13T05:52:47.502Z,51.13
2018-04-13T05:55:15.213Z,55.70
2018-04-13T05:57:42.912Z,66.67
2018-04-13T06:00:10.600Z,72.60
2018-04-13T06:02:38.170Z,66.70
2018-04-13T06:05:05.849Z,54.73
2018-04-13T06:07:33.513Z,60.13
2018-04-13T06:10:01.230Z,62.43
2018-04-13T06:12:29.239Z,60.03
2018-04-13T06:14:57.315Z,65.93
2018-04-13T06:17:24.918Z,72.70
2018-04-13T06:19:52.539Z,60.87
2018-04-13T06:22:20.732Z,76.83
2018-04-13T06:24:48.336Z,70.50
2018-04-13T06:27:16.368Z,61.27
2018-04-13T06:29:44.032Z,66.53
2018-04-13T06:32:11.669Z,63.43
2018-04-13T06:34:39.414Z,69.30
2018-04-13T06:37:07.112Z,73.60
2018-04-13T06:39:34.911Z,98.23
2018-04-13T06:42:02.526Z,80.37
2018-04-13T06:44:30.185Z,71.73
2018-04-13T06:46:57.805Z,65.63
2018-04-13T06:49:25.433Z,63.67
2018-04-13T06:51:53.371Z,59.77
2018-04-13T06:54:20.975Z,63.40
2018-04-13T06:56:48.702Z,47.20
2018-04-13T06:59:16.349Z,41.93
2018-04-13T07:01:43.971Z,47.30
2018-04-13T07:04:11.589Z,35.70
2018-04-13T07:06:39.297Z,34.70
2018-04-13T07:09:06.908Z,33.73
2018-04-13T07:11:34.546Z,31.07
2018-04-13T07:14:02.557Z,31.53
2018-04-13T07:16:30.160Z,35.53
2018-04-13T07:18:58.226Z,38.77
2018-04-13T07:21:25.913Z,34.30
2018-04-13T07:23:53.597Z,31.27
2018-04-13T07:26:21.312Z,39.07
2018-04-13T07:28:48.912Z,29.27
2018-04-13T07:31:17.307Z,31.40
2018-04-13T07:33:45.032Z,28.20
2018-04-13T07:36:12.743Z,29.50
2018-04-13T07:38:40.443Z,32.47
2018-04-13T07:41:08.182Z,29.03
2018-04-13T07:43:35.798Z,29.07
2018-04-13T07:46:03.399Z,24.70
2018-04-13T07:48:31.056Z,29.23
2018-04-13T07:50:58.662Z,27.17
2018-04-13T07:53:26.309Z,26.63
2018-04-13T07:55:53.923Z,29.77
2018-04-13T07:58:21.997Z,31.07
2018-04-13T08:00:49.429Z,28.63
2018-04-13T08:03:16.899Z,27.33
2018-04-13T08:05:44.536Z,27.03
2018-04-13T08:08:12.218Z,32.97
2018-04-13T08:10:39.934Z,31.70
2018-04-13T08:13:07.590Z,32.70
2018-04-13T08:15:35.198Z,29.17
2018-04-13T08:18:02.896Z,29.33
2018-04-13T08:20:30.544Z,32.73
2018-04-13T08:22:58.421Z,29.83
2018-04-13T08:25:26.440Z,31.67
2018-04-13T08:27:54.141Z,34.03
2018-04-13T08:30:21.780Z,32.63
2018-04-13T08:32:49.543Z,35.70
2018-04-13T08:35:17.212Z,32.40
2018-04-13T08:37:44.833Z,37.10
2018-04-13T08:40:12.507Z,32.73
2018-04-13T08:42:40.383Z,37.57
2018-04-13T08:45:08.473Z,38.53
2018-04-13T08:47:36.392Z,40.23
2018-04-13T08:50:04.345Z,35.63
2018-04-13T08:52:32.757Z,36.10
2018-04-13T08:55:00.434Z,35.73
2018-04-13T08:57:28.127Z,31.47
2018-04-13T08:59:55.746Z,30.87
2018-04-13T09:02:23.399Z,31.43
2018-04-13T09:04:51.200Z,31.43
2018-04-13T09:07:18.885Z,46.57
2018-04-13T09:09:46.880Z,33.17
2018-04-13T09:12:14.700Z,29.43
2018-04-13T09:14:42.620Z,27.53
2018-04-13T09:17:10.286Z,30.90
2018-04-13T09:19:37.903Z,28.33
2018-04-13T09:22:05.561Z,27.03
2018-04-13T09:24:33.244Z,29.50
2018-04-13T09:27:01.066Z,29.03
2018-04-13T09:29:28.702Z,27.20
2018-04-13T09:31:56.294Z,24.27
2018-04-13T09:34:23.995Z,29.80
2018-04-13T09:36:51.693Z,24.70
2018-04-13T09:39:19.320Z,24.87
2018-04-13T09:41:47.002Z,26.30
2018-04-13T09:44:14.980Z,27.57
2018-04-13T09:46:42.655Z,23.80
2018-04-13T09:49:10.252Z,33.67
2018-04-13T09:51:38.273Z,30.50
2018-04-13T09:54:05.928Z,26.33
2018-04-13T09:56:33.545Z,27.40
2018-04-13T09:59:01.231Z,29.43
2018-04-13T10:01:34.601Z,26.57
2018-04-13T10:04:05.165Z,29.70
2018-04-13T10:06:32.768Z,29.83
2018-04-13T10:09:00.552Z,24.20
2018-04-13T10:11:28.211Z,28.20
2018-04-13T10:13:56.163Z,26.40
2018-04-13T10:16:24.199Z,20.17
2018-04-13T10:18:52.171Z,25.03
2018-04-13T10:21:19.843Z,25.93
2018-04-13T10:23:47.534Z,24.50
2018-04-13T10:26:21.319Z,25.57
2018-04-13T10:28:48.993Z,27.63
2018-04-13T10:31:16.647Z,22.57
2018-04-13T10:33:44.280Z,24.77
2018-04-13T10:36:11.969Z,20.60
2018-04-13T10:38:39.703Z,22.27
2018-04-13T10:41:07.286Z,26.00
2018-04-13T10:43:34.901Z,25.03
2018-04-13T10:46:02.584Z,28.70
2018-04-13T10:48:30.483Z,21.17
2018-04-13T10:50:58.142Z,28.40
2018-04-13T10:53:25.751Z,22.10
2018-04-13T10:55:54.328Z,23.53
2018-04-13T10:58:21.918Z,23.60
2018-04-13T11:00:49.759Z,28.87
2018-04-13T11:03:17.370Z,28.03
2018-04-13T11:05:45.133Z,35.70
2018-04-13T11:08:12.933Z,34.33
2018-04-13T11:10:40.966Z,32.60
2018-04-13T11:13:08.844Z,37.43
2018-04-13T11:15:36.475Z,34.10
2018-04-13T11:18:04.077Z,40.53
2018-04-13T11:20:31.690Z,48.87
2018-04-13T11:22:59.366Z,43.30
2018-04-13T11:25:27.396Z,51.97
2018-04-13T11:27:54.986Z,51.40
2018-04-13T11:30:22.999Z,58.87
2018-04-13T11:32:50.673Z,43.60
2018-04-13T11:35:18.288Z,51.00
2018-04-13T11:37:45.984Z,49.27
2018-04-13T11:40:13.596Z,49.13
2018-04-13T11:42:41.704Z,58.43
2018-04-13T11:45:09.551Z,67.83
2018-04-13T11:47:37.145Z,55.57
2018-04-13T11:50:04.808Z,74.37
2018-04-13T11:52:32.468Z,74.63
2018-04-13T11:55:00.193Z,73.20
2018-04-13T11:57:27.797Z,56.03
2018-04-13T11:59:55.474Z,67.60
2018-04-13T12:02:23.195Z,59.80
2018-04-13T12:04:50.843Z,74.13
2018-04-13T12:07:18.643Z,73.97
2018-04-13T12:09:46.272Z,67.47
2018-04-13T12:12:14.034Z,71.80
2018-04-13T12:14:41.709Z,82.60
2018-04-13T12:17:09.590Z,78.47
2018-04-13T12:19:37.327Z,82.33
2018-04-13T12:22:04.979Z,85.43
2018-04-13T12:24:32.985Z,101.13
2018-04-13T12:27:00.609Z,103.60
2018-04-13T12:29:28.310Z,111.13
2018-04-13T12:31:55.926Z,106.93
2018-04-13T12:34:23.523Z,112.53
2018-04-13T12:36:51.141Z,89.57
2018-04-13T12:39:18.798Z,101.87
2018-04-13T12:41:46.945Z,112.83
2018-04-13T12:44:14.577Z,104.20
2018-04-13T12:46:42.251Z,97.93
2018-04-13T12:49:09.948Z,116.10
2018-04-13T12:51:37.584Z,111.53
2018-04-13T12:54:05.251Z,108.80
2018-04-13T12:56:33.101Z,108.30
2018-04-13T12:59:00.723Z,110.60
2018-04-13T13:01:28.343Z,105.30
2018-04-13T13:03:56.415Z,105.77
2018-04-13T13:06:24.032Z,112.87
2018-04-13T13:08:51.783Z,103.83
2018-04-13T13:11:19.418Z,116.17
2018-04-13T13:13:47.108Z,118.13
2018-04-13T13:16:15.021Z,107.47
2018-04-13T13:18:42.814Z,105.77
2018-04-13T13:21:10.453Z,109.67
2018-04-13T13:23:38.198Z,108.23
2018-04-13T13:26:05.862Z,110.37
2018-04-13T13:28:33.845Z,103.83
2018-04-13T13:31:01.538Z,94.00
2018-04-13T13:33:29.154Z,106.17
2018-04-13T13:35:56.967Z,104.70
2018-04-13T13:38:24.570Z,99.00
2018-04-13T13:40:52.154Z,98.70
2018-04-13T13:43:20.138Z,97.43
2018-04-13T13:45:47.795Z,102.80
2018-04-13T13:48:15.460Z,105.43
2018-04-13T13:50:43.074Z,104.97
2018-04-13T13:53:10.817Z,107.60
2018-04-13T13:55:38.435Z,110.87
2018-04-13T13:58:06.032Z,104.47
2018-04-13T14:00:33.723Z,107.93
2018-04-13T14:03:01.313Z,97.40
2018-04-13T14:05:29.009Z,112.73
2018-04-13T14:07:56.677Z,98.10
2018-04-13T14:10:24.411Z,99.53
2018-04-13T14:12:52.003Z,109.43
2018-04-13T14:15:20.096Z,99.90
2018-04-13T14:17:47.842Z,97.10
2018-04-13T14:20:15.434Z,101.77
2018-04-13T14:22:43.111Z,95.80
2018-04-13T14:25:10.707Z,88.43
2018-04-13T14:27:38.301Z,102.87
2018-04-13T14:30:06.242Z,51.37
2018-04-13T14:32:33.973Z,39.53
2018-04-13T14:35:01.667Z,29.83
2018-04-13T14:37:29.273Z,19.23
2018-04-13T14:39:57.385Z,22.00
2018-04-13T14:42:24.989Z,20.80
2018-04-13T14:44:52.595Z,16.27
2018-04-13T14:47:20.323Z,17.93
2018-04-13T14:49:47.948Z,16.70
2018-04-13T14:52:15.597Z,10.73
2018-04-13T14:54:43.628Z,14.10
2018-04-13T14:57:11.220Z,13.10
2018-04-13T14:59:38.799Z,18.03
2018-04-13T15:02:06.425Z,15.70
2018-04-13T15:04:34.211Z,16.77
2018-04-13T15:07:02.075Z,12.43
2018-04-13T15:09:29.842Z,12.27
2018-04-13T15:11:57.498Z,14.03
2018-04-13T15:14:25.162Z,13.47
2018-04-13T15:16:52.810Z,13.67
2018-04-13T15:19:20.399Z,19.43
2018-04-13T15:21:47.979Z,13.20
2018-04-13T15:24:15.721Z,12.03
2018-04-13T15:26:43.296Z,15.20
2018-04-13T15:29:10.952Z,17.00
2018-04-13T15:31:38.603Z,13.03
2018-04-13T15:34:06.301Z,11.47
2018-04-13T15:36:33.907Z,11.60
2018-04-13T15:39:01.652Z,12.23
2018-04-13T15:41:29.251Z,12.17
2018-04-13T15:43:57.283Z,14.23
2018-04-13T15:46:24.968Z,13.97
2018-04-13T15:48:52.620Z,12.63
2018-04-13T15:51:20.233Z,9.23
2018-04-13T15:53:47.959Z,15.23
2018-04-13T15:56:15.667Z,12.23
2018-04-13T15:58:43.255Z,8.10
2018-04-13T16:01:10.909Z,9.23
2018-04-13T16:03:38.837Z,7.13
2018-04-13T16:06:06.443Z,8.13
2018-04-13T16:08:34.148Z,11.63
2018-04-13T16:11:01.999Z,13.10
2018-04-13T16:13:29.828Z,14.90
2018-04-13T16:15:57.436Z,17.63
2018-04-13T16:18:25.118Z,22.00
2018-04-13T16:20:52.790Z,24.50
2018-04-13T16:23:20.541Z,25.90
2018-04-13T16:25:48.164Z,23.70
2018-04-13T16:28:15.794Z,35.17
2018-04-13T16:30:43.420Z,27.53
2018-04-13T16:33:11.121Z,32.53
2018-04-13T16:35:38.801Z,27.50
2018-04-13T16:38:06.518Z,27.57
2018-04-13T16:40:34.655Z,28.27
2018-04-13T16:43:02.261Z,28.73
2018-04-13T16:45:29.859Z,32.90
2018-04-13T16:47:58.042Z,31.33
2018-04-13T16:50:26.479Z,29.03
2018-04-13T16:52:54.139Z,32.00
2018-04-13T16:55:22.200Z,29.63
2018-04-13T16:57:49.794Z,34.40
2018-04-13T17:00:17.536Z,32.80
2018-04-13T17:02:45.123Z,36.57
2018-04-13T17:05:12.778Z,35.37
2018-04-13T17:07:40.729Z,37.03
2018-04-13T17:10:08.661Z,39.10
2018-04-13T17:12:36.554Z,38.57
2018-04-13T17:15:04.401Z,34.60
2018-04-13T17:17:32.560Z,39.83
2018-04-13T17:20:00.460Z,35.60
2018-04-13T17:22:28.119Z,39.03
2018-04-13T17:24:55.908Z,37.73
2018-04-13T17:27:23.636Z,38.60
2018-04-13T17:29:51.286Z,36.97
2018-04-13T17:32:19.172Z,51.00
2018-04-13T17:34:47.319Z,44.07
2018-04-13T17:37:14.917Z,52.17
2018-04-13T17:39:42.585Z,59.93
2018-04-13T17:42:10.368Z,76.80
2018-04-13T17:44:38.309Z,70.70
2018-04-13T17:47:06.091Z,79.80
2018-04-13T17:49:33.806Z,84.13
2018-04-13T17:52:01.465Z,81.90
2018-04-13T17:54:29.055Z,80.43
2018-04-13T17:56:56.746Z,83.67
2018-04-13T17:59:24.455Z,83.97
2018-04-13T18:01:52.578Z,83.43
2018-04-13T18:04:20.175Z,80.57
2018-04-13T18:06:47.806Z,90.83
2018-04-13T18:09:16.025Z,82.43
2018-04-13T18:11:43.681Z,87.60
2018-04-13T18:14:11.339Z,83.90
2018-04-13T18:16:39.057Z,85.23
2018-04-13T18:19:06.708Z,90.60
2018-04-13T18:21:34.548Z,96.93
2018-04-13T18:24:02.287Z,88.03
2018-04-13T18:26:29.868Z,94.27
2018-04-13T18:28:57.512Z,91.10
2018-04-13T18:31:25.549Z,83.20
2018-04-13T18:33:53.162Z,76.83
2018-04-13T18:36:21.062Z,90.03
2018-04-13T18:38:48.796Z,78.00
2018-04-13T18:41:16.517Z,85.33
2018-04-13T18:43:44.177Z,84.17
2018-04-13T18:46:11.983Z,75.47
2018-04-13T18:48:39.769Z,79.73
2018-04-13T18:51:07.421Z,78.93
2018-04-13T18:53:35.115Z,88.67
2018-04-13T18:56:02.712Z,78.93
2018-04-13T18:58:30.364Z,75.67
2018-04-13T19:00:58.141Z,70.10
2018-04-13T19:03:25.834Z,78.50
2018-04-13T19:05:53.442Z,73.17
2018-04-13T19:08:21.188Z,63.50
2018-04-13T19:10:48.815Z,72.17
2018-04-13T19:13:16.442Z,70.10
2018-04-13T19:15:44.073Z,70.93
2018-04-13T19:18:12.456Z,61.63
2018-04-13T19:20:40.185Z,70.40
2018-04-13T19:23:07.803Z,64.60
2018-04-13T19:25:35.537Z,75.07
2018-04-13T19:28:03.133Z,64.43
2018-04-13T19:30:30.717Z,76.77
2018-04-13T19:32:58.340Z,72.83
2018-04-13T19:35:26.003Z,69.03
2018-04-13T19:37:53.868Z,63.00
2018-04-13T19:40:21.464Z,69.23
2018-04-13T19:42:49.382Z,65.33
2018-04-13T19:45:17.248Z,64.40
2018-04-13T19:47:44.890Z,71.50
2018-04-13T19:50:12.878Z,64.07
2018-04-13T19:52:40.953Z,65.80
2018-04-13T19:55:09.090Z,70.83
2018-04-13T19:57:36.818Z,70.70
2018-04-13T20:00:04.479Z,74.77
2018-04-13T20:02:32.519Z,79.53
2018-04-13T20:05:00.235Z,77.40
2018-04-13T20:07:27.951Z,75.27
2018-04-13T20:09:55.604Z,67.27
2018-04-13T20:12:23.285Z,67.03
2018-04-13T20:14:50.935Z,60.50
2018-04-13T20:17:18.715Z,69.20
2018-04-13T20:19:46.339Z,73.77
2018-04-13T20:22:13.937Z,61.53
2018-04-13T20:24:42.062Z,63.53
2018-04-13T20:27:09.661Z,62.77
2018-04-13T20:29:37.322Z,61.20
2018-04-13T20:32:05.020Z,65.00
2018-04-13T20:34:32.645Z,57.33
2018-04-13T20:37:00.246Z,61.60
2018-04-13T20:39:27.929Z,71.90
2018-04-13T20:41:55.938Z,68.03
2018-04-13T20:44:23.602Z,60.87
2018-04-13T20:46:51.341Z,62.50
2018-04-13T20:49:19.206Z,68.93
2018-04-13T20:51:47.005Z,61.73
2018-04-13T20:54:14.584Z,68.70
2018-04-13T20:56:42.495Z,67.30
2018-04-13T20:59:10.396Z,72.07
2018-04-13T21:01:37.991Z,76.10
2018-04-13T21:04:07.868Z,65.00
2018-04-13T21:06:36.320Z,72.30
2018-04-13T21:09:05.077Z,72.30
2018-04-13T21:11:33.543Z,71.70
2018-04-13T21:14:01.727Z,62.03
2018-04-13T21:16:30.231Z,72.60
2018-04-13T21:18:58.428Z,80.30
2018-04-13T21:21:26.579Z,87.80
2018-04-13T21:23:54.558Z,84.63
2018-04-13T21:26:22.162Z,91.40
2018-04-13T21:28:49.794Z,89.90
2018-04-13T21:31:17.427Z,88.83
2018-04-13T21:33:45.027Z,85.70
2018-04-13T21:36:12.667Z,97.10
2018-04-13T21:38:40.321Z,94.10
2018-04-13T21:41:07.965Z,83.90
2018-04-13T21:43:35.607Z,85.63
2018-04-13T21:46:03.536Z,88.90
2018-04-13T21:48:31.131Z,95.90
2018-04-13T21:50:58.770Z,81.87
2018-04-13T21:53:26.533Z,84.03
2018-04-13T21:55:54.611Z,85.83
2018-04-13T21:58:22.809Z,78.63
2018-04-13T22:00:50.429Z,80.97
2018-04-13T22:03:18.035Z,75.93
2018-04-13T22:05:46.049Z,78.60
2018-04-13T22:08:13.946Z,83.00
2018-04-13T22:10:41.755Z,89.37
2018-04-13T22:13:21.300Z,83.67
2018-04-13T22:15:48.885Z,81.37
2018-04-13T22:18:16.506Z,71.87
2018-04-13T22:20:44.243Z,80.50
2018-04-13T22:23:12.035Z,69.00
2018-04-13T22:25:39.671Z,71.40
2018-04-13T22:28:07.351Z,75.40
2018-04-13T22:30:34.958Z,75.77
2018-04-13T22:33:03.096Z,67.07
2018-04-13T22:35:30.813Z,70.70
2018-04-13T22:37:58.422Z,81.50
2018-04-13T22:40:26.131Z,80.87
2018-04-13T22:42:53.721Z,77.73
2018-04-13T22:45:21.595Z,69.13
2018-04-13T22:47:49.308Z,79.77
2018-04-13T22:50:17.065Z,73.73
2018-04-13T22:52:44.715Z,81.07
2018-04-13T22:55:12.423Z,67.60
2018-04-13T22:57:40.537Z,78.60
2018-04-13T23:00:08.143Z,81.50
2018-04-13T23:02:35.813Z,86.10
2018-04-13T23:05:03.435Z,74.73
2018-04-13T23:07:31.101Z,87.10
2018-04-13T23:09:58.852Z,92.93
2018-04-13T23:12:26.445Z,67.80
2018-04-13T23:14:54.095Z,73.73
2018-04-13T23:17:22.115Z,79.07
2018-04-13T23:19:49.812Z,72.17
2018-04-13T23:22:29.802Z,80.17
2018-04-13T23:24:57.460Z,75.83
2018-04-13T23:27:25.045Z,72.63
2018-04-13T23:29:52.658Z,79.77
2018-04-13T23:32:20.385Z,87.73
2018-04-13T23:34:48.002Z,80.50
2018-04-13T23:37:15.663Z,76.10
2018-04-13T23:39:43.651Z,78.60
2018-04-13T23:42:11.516Z,78.70
2018-04-13T23:44:39.776Z,81.50
2018-04-13T23:47:07.837Z,85.50
2018-04-13T23:49:36.123Z,86.40
2018-04-13T23:52:04.366Z,69.40
2018-04-13T23:54:32.702Z,82.10
2018-04-13T23:57:00.328Z,83.53
2018-04-13T23:59:28.159Z,86.63
